Overview Statistics Trail Chart Weather Telemetry Raw packets
 

This is the latest recevied weather packets stored in our database for station/object 9W2CHF-3. If no packets are shown the sender has not sent any weather packets the latest 10 day(s).

<< 1 2 3 4 5 6 7 >>
Time Temp. Humidity Pressure Rain* Wind** Luminosity Snow
1788528959 30° C 92% 1013.7 hPa - - - -
1788527759 30.56° C 94% 1013.5 hPa - - - -
1788526559 31.11° C 92% 1013.3 hPa - - - -
1788525359 31.67° C 89% 1013.1 hPa - - - -
1788524159 31.11° C 89% 1012.8 hPa - - - -
1788522959 31.67° C 87% 1012.6 hPa - - - -
1788521759 31.11° C 90% 1012.1 hPa - - - -
1788520559 33.89° C 73% 1011.9 hPa - - - -
1788519359 32.22° C 79% 1011.7 hPa - - - -
1788518159 32.22° C 74% 1011.2 hPa - - - -
1788516959 33.33° C 67% 1011 hPa - - - -
1788515763 33.89° C 64% 1010.9 hPa - - - -
1788514563 34.44° C 59% 1010.6 hPa - - - -
1788513363 35° C 57% 1010.5 hPa - - - -
1788512162 35° C 56% 1010.7 hPa - - - -
1788510962 36.11° C 52% 1010.8 hPa - - - -
1788509762 34.44° C 58% 1010.8 hPa - - - -
1788508562 34.44° C 59% 1011 hPa - - - -
1788507362 36.11° C 55% 1011 hPa - - - -
1788506162 36.67° C 55% 1011.3 hPa - - - -
1788504961 35.56° C 57% 1011.4 hPa - - - -
1788503761 35° C 59% 1011.7 hPa - - - -
1788502561 35° C 60% 1012.1 hPa - - - -
1788501361 34.44° C 61% 1012.5 hPa - - - -
1788500161 35° C 61% 1012.7 hPa - - - -

* Rain since midnight (hover to see other rain measurements)
** Current wind speed in m/s (hover to see current wind gust speed)